CheckWX is a tool to help pilots better visualize weather data.  It is not intended as a substitute for an official pre-flight weather briefing.

07:14:11 UTC

SCIE METAR
Carriel Sur Airport
Concepcion, Chile
Current

14 mins ago

SCIE 210700Z 16003KT CAVOK 06/05 Q1025
Observed
Sep-21 @ 07:00 UTC
Wind
  • 160° at 3 KTS
Visibility
10,000+ meters
Flight Rules
VFR
Cloud Levels
  • Clear skies
Temperature
C / 43°F
Dewpoint
C / 41°F
Humidity
93%
Altimeter
30.27" Hg
Pressure
1024.92 hPa
Previous

1 hour ago

SCIE 210600Z 19002KT CAVOK 05/04 Q1026
Observed
Sep-21 @ 06:00 UTC
Wind
  • 190° at 2 KTS
Visibility
10,000+ meters
Flight Rules
VFR
Cloud Levels
  • Clear skies
Temperature
C / 41°F
Dewpoint
C / 39°F
Humidity
93%
Altimeter
30.3" Hg
Pressure
1025.92 hPa
Previous

2 hours ago

SCIE 210500Z 15004KT CAVOK 07/05 Q1027
Observed
Sep-21 @ 05:00 UTC
Wind
  • 150° at 4 KTS
Visibility
10,000+ meters
Flight Rules
VFR
Cloud Levels
  • Clear skies
Temperature
C / 45°F
Dewpoint
C / 41°F
Humidity
87%
Altimeter
30.32" Hg
Pressure
1026.92 hPa